sensor_id;sensor_type;location;lat;lon;timestamp;P1;durP1;ratioP1;P2;durP2;ratioP2
43994;SDS011;51687;52.160;5.298;2024-03-29T00:01:16;7.65;;;1.38;;
43994;SDS011;51687;52.160;5.298;2024-03-29T00:03:42;4.65;;;1.42;;
43994;SDS011;51687;52.160;5.298;2024-03-29T00:06:08;4.57;;;1.58;;
43994;SDS011;51687;52.160;5.298;2024-03-29T00:08:34;3.80;;;1.42;;
43994;SDS011;51687;52.160;5.298;2024-03-29T00:11:00;4.30;;;1.25;;
43994;SDS011;51687;52.160;5.298;2024-03-29T00:13:26;4.93;;;1.48;;
43994;SDS011;51687;52.160;5.298;2024-03-29T00:15:52;4.55;;;1.92;;
43994;SDS011;51687;52.160;5.298;2024-03-29T00:18:18;4.28;;;1.05;;
43994;SDS011;51687;52.160;5.298;2024-03-29T00:20:44;4.28;;;1.05;;
43994;SDS011;51687;52.160;5.298;2024-03-29T00:23:10;5.35;;;1.00;;
43994;SDS011;51687;52.160;5.298;2024-03-29T00:25:35;5.95;;;1.00;;
43994;SDS011;51687;52.160;5.298;2024-03-29T00:28:01;4.03;;;1.00;;
43994;SDS011;51687;52.160;5.298;2024-03-29T00:30:28;4.90;;;1.50;;
43994;SDS011;51687;52.160;5.298;2024-03-29T00:32:54;5.05;;;1.33;;
43994;SDS011;51687;52.160;5.298;2024-03-29T00:35:20;5.47;;;1.20;;
43994;SDS011;51687;52.160;5.298;2024-03-29T00:37:48;6.05;;;1.33;;
43994;SDS011;51687;52.160;5.298;2024-03-29T00:40:15;5.13;;;1.15;;
43994;SDS011;51687;52.160;5.298;2024-03-29T00:42:41;2.65;;;0.90;;
43994;SDS011;51687;52.160;5.298;2024-03-29T00:45:08;5.30;;;1.40;;
43994;SDS011;51687;52.160;5.298;2024-03-29T00:47:34;4.47;;;1.70;;
43994;SDS011;51687;52.160;5.298;2024-03-29T00:50:02;3.95;;;1.20;;
43994;SDS011;51687;52.160;5.298;2024-03-29T00:52:28;4.75;;;1.50;;
43994;SDS011;51687;52.160;5.298;2024-03-29T00:54:54;5.13;;;1.35;;
43994;SDS011;51687;52.160;5.298;2024-03-29T00:57:20;3.92;;;1.02;;
43994;SDS011;51687;52.160;5.298;2024-03-29T00:59:46;4.93;;;1.42;;
43994;SDS011;51687;52.160;5.298;2024-03-29T01:02:12;6.50;;;1.95;;
43994;SDS011;51687;52.160;5.298;2024-03-29T01:04:38;3.30;;;1.02;;
43994;SDS011;51687;52.160;5.298;2024-03-29T01:07:05;4.78;;;1.20;;
43994;SDS011;51687;52.160;5.298;2024-03-29T01:09:31;5.03;;;1.30;;
43994;SDS011;51687;52.160;5.298;2024-03-29T01:11:57;4.88;;;1.38;;
43994;SDS011;51687;52.160;5.298;2024-03-29T01:14:23;6.05;;;1.10;;
43994;SDS011;51687;52.160;5.298;2024-03-29T01:16:55;3.70;;;1.10;;
43994;SDS011;51687;52.160;5.298;2024-03-29T01:19:21;5.00;;;1.40;;
43994;SDS011;51687;52.160;5.298;2024-03-29T01:21:46;5.50;;;1.30;;
43994;SDS011;51687;52.160;5.298;2024-03-29T01:24:12;4.53;;;1.30;;
43994;SDS011;51687;52.160;5.298;2024-03-29T01:26:38;5.13;;;1.08;;
43994;SDS011;51687;52.160;5.298;2024-03-29T01:29:04;2.97;;;0.90;;
43994;SDS011;51687;52.160;5.298;2024-03-29T01:31:31;5.07;;;1.00;;
43994;SDS011;51687;52.160;5.298;2024-03-29T01:33:57;3.28;;;1.15;;
43994;SDS011;51687;52.160;5.298;2024-03-29T01:36:23;5.13;;;1.02;;
43994;SDS011;51687;52.160;5.298;2024-03-29T01:38:49;4.53;;;0.90;;
43994;SDS011;51687;52.160;5.298;2024-03-29T01:41:19;9.38;;;1.35;;
43994;SDS011;51687;52.160;5.298;2024-03-29T01:43:45;3.40;;;1.02;;
43994;SDS011;51687;52.160;5.298;2024-03-29T01:46:11;4.70;;;1.70;;
43994;SDS011;51687;52.160;5.298;2024-03-29T01:48:37;4.05;;;1.15;;
43994;SDS011;51687;52.160;5.298;2024-03-29T01:51:03;2.72;;;1.17;;
43994;SDS011;51687;52.160;5.298;2024-03-29T01:53:29;8.30;;;1.60;;
43994;SDS011;51687;52.160;5.298;2024-03-29T01:55:56;7.22;;;1.55;;
43994;SDS011;51687;52.160;5.298;2024-03-29T01:58:23;4.38;;;1.00;;
43994;SDS011;51687;52.160;5.298;2024-03-29T02:00:53;4.03;;;1.15;;
43994;SDS011;51687;52.160;5.298;2024-03-29T02:03:22;3.95;;;1.30;;
43994;SDS011;51687;52.160;5.298;2024-03-29T02:05:48;3.63;;;1.10;;
43994;SDS011;51687;52.160;5.298;2024-03-29T02:08:15;2.80;;;0.90;;
43994;SDS011;51687;52.160;5.298;2024-03-29T02:10:42;5.22;;;1.05;;
43994;SDS011;51687;52.160;5.298;2024-03-29T02:13:10;5.25;;;1.02;;
43994;SDS011;51687;52.160;5.298;2024-03-29T02:15:36;4.88;;;1.38;;
43994;SDS011;51687;52.160;5.298;2024-03-29T02:18:01;1.80;;;0.77;;
43994;SDS011;51687;52.160;5.298;2024-03-29T02:20:27;4.57;;;1.10;;
43994;SDS011;51687;52.160;5.298;2024-03-29T02:23:17;4.82;;;2.17;;
43994;SDS011;51687;52.160;5.298;2024-03-29T02:25:45;3.42;;;1.08;;
43994;SDS011;51687;52.160;5.298;2024-03-29T02:28:12;3.63;;;0.95;;
43994;SDS011;51687;52.160;5.298;2024-03-29T02:30:38;4.50;;;1.52;;
43994;SDS011;51687;52.160;5.298;2024-03-29T02:33:05;4.47;;;1.17;;
43994;SDS011;51687;52.160;5.298;2024-03-29T02:35:31;5.68;;;1.33;;
43994;SDS011;51687;52.160;5.298;2024-03-29T02:37:57;3.35;;;1.40;;
43994;SDS011;51687;52.160;5.298;2024-03-29T02:40:23;3.60;;;1.10;;
43994;SDS011;51687;52.160;5.298;2024-03-29T02:42:49;3.90;;;0.90;;
43994;SDS011;51687;52.160;5.298;2024-03-29T02:45:16;4.05;;;1.13;;
43994;SDS011;51687;52.160;5.298;2024-03-29T02:47:42;5.03;;;1.33;;
43994;SDS011;51687;52.160;5.298;2024-03-29T02:50:09;7.35;;;1.80;;
43994;SDS011;51687;52.160;5.298;2024-03-29T02:52:35;5.45;;;1.05;;
43994;SDS011;51687;52.160;5.298;2024-03-29T02:55:01;4.85;;;1.52;;
43994;SDS011;51687;52.160;5.298;2024-03-29T02:57:27;3.92;;;1.00;;
43994;SDS011;51687;52.160;5.298;2024-03-29T02:59:53;2.80;;;0.77;;
43994;SDS011;51687;52.160;5.298;2024-03-29T03:02:19;4.50;;;0.90;;
43994;SDS011;51687;52.160;5.298;2024-03-29T03:04:45;7.47;;;1.45;;
43994;SDS011;51687;52.160;5.298;2024-03-29T03:07:11;3.85;;;1.00;;
43994;SDS011;51687;52.160;5.298;2024-03-29T03:09:55;6.28;;;1.58;;
43994;SDS011;51687;52.160;5.298;2024-03-29T03:12:40;5.30;;;1.25;;
43994;SDS011;51687;52.160;5.298;2024-03-29T03:15:06;3.97;;;1.00;;
43994;SDS011;51687;52.160;5.298;2024-03-29T03:17:32;3.25;;;0.90;;
43994;SDS011;51687;52.160;5.298;2024-03-29T03:19:58;3.10;;;0.95;;
43994;SDS011;51687;52.160;5.298;2024-03-29T03:22:24;3.95;;;1.00;;
43994;SDS011;51687;52.160;5.298;2024-03-29T03:24:50;2.80;;;1.08;;
43994;SDS011;51687;52.160;5.298;2024-03-29T03:27:16;2.75;;;1.00;;
43994;SDS011;51687;52.160;5.298;2024-03-29T03:29:42;3.40;;;1.08;;
43994;SDS011;51687;52.160;5.298;2024-03-29T03:32:08;3.30;;;1.05;;
43994;SDS011;51687;52.160;5.298;2024-03-29T03:34:34;4.40;;;1.17;;
43994;SDS011;51687;52.160;5.298;2024-03-29T03:36:59;3.90;;;1.17;;
43994;SDS011;51687;52.160;5.298;2024-03-29T03:39:25;2.75;;;1.00;;
43994;SDS011;51687;52.160;5.298;2024-03-29T03:41:51;2.85;;;1.20;;
43994;SDS011;51687;52.160;5.298;2024-03-29T03:44:17;5.53;;;1.27;;
43994;SDS011;51687;52.160;5.298;2024-03-29T03:46:44;3.80;;;1.20;;
43994;SDS011;51687;52.160;5.298;2024-03-29T03:49:10;4.95;;;1.23;;
43994;SDS011;51687;52.160;5.298;2024-03-29T03:51:35;5.68;;;0.95;;
43994;SDS011;51687;52.160;5.298;2024-03-29T03:54:01;5.13;;;1.17;;
43994;SDS011;51687;52.160;5.298;2024-03-29T03:56:28;2.20;;;0.93;;
43994;SDS011;51687;52.160;5.298;2024-03-29T03:58:54;1.52;;;0.80;;
43994;SDS011;51687;52.160;5.298;2024-03-29T04:01:20;2.53;;;1.08;;
43994;SDS011;51687;52.160;5.298;2024-03-29T04:03:46;2.75;;;0.85;;
43994;SDS011;51687;52.160;5.298;2024-03-29T04:06:12;3.58;;;0.80;;
43994;SDS011;51687;52.160;5.298;2024-03-29T04:08:38;2.70;;;0.68;;
43994;SDS011;51687;52.160;5.298;2024-03-29T04:11:04;3.75;;;1.00;;
43994;SDS011;51687;52.160;5.298;2024-03-29T04:13:32;3.00;;;0.82;;
43994;SDS011;51687;52.160;5.298;2024-03-29T04:16:02;2.17;;;1.10;;
43994;SDS011;51687;52.160;5.298;2024-03-29T04:18:31;1.83;;;1.00;;
43994;SDS011;51687;52.160;5.298;2024-03-29T04:21:01;3.80;;;1.05;;
43994;SDS011;51687;52.160;5.298;2024-03-29T04:23:28;3.13;;;1.05;;
43994;SDS011;51687;52.160;5.298;2024-03-29T04:25:54;7.38;;;1.17;;
43994;SDS011;51687;52.160;5.298;2024-03-29T04:28:21;2.13;;;0.60;;
43994;SDS011;51687;52.160;5.298;2024-03-29T04:30:54;2.40;;;0.95;;
43994;SDS011;51687;52.160;5.298;2024-03-29T04:33:22;2.17;;;0.98;;
43994;SDS011;51687;52.160;5.298;2024-03-29T04:35:57;1.77;;;0.77;;
43994;SDS011;51687;52.160;5.298;2024-03-29T04:38:23;3.17;;;0.98;;
43994;SDS011;51687;52.160;5.298;2024-03-29T04:40:51;1.90;;;0.80;;
43994;SDS011;51687;52.160;5.298;2024-03-29T04:43:17;2.58;;;0.77;;
43994;SDS011;51687;52.160;5.298;2024-03-29T04:45:44;3.25;;;0.93;;
43994;SDS011;51687;52.160;5.298;2024-03-29T04:48:11;2.70;;;1.35;;
43994;SDS011;51687;52.160;5.298;2024-03-29T04:50:37;2.95;;;0.57;;
43994;SDS011;51687;52.160;5.298;2024-03-29T04:53:04;1.73;;;0.60;;
43994;SDS011;51687;52.160;5.298;2024-03-29T04:55:30;3.03;;;0.68;;
43994;SDS011;51687;52.160;5.298;2024-03-29T04:57:56;2.40;;;0.90;;
43994;SDS011;51687;52.160;5.298;2024-03-29T05:00:23;3.25;;;0.70;;
43994;SDS011;51687;52.160;5.298;2024-03-29T05:02:49;1.85;;;0.50;;
43994;SDS011;51687;52.160;5.298;2024-03-29T05:05:15;1.30;;;0.55;;
43994;SDS011;51687;52.160;5.298;2024-03-29T05:07:43;2.15;;;0.63;;
43994;SDS011;51687;52.160;5.298;2024-03-29T05:10:09;0.57;;;0.43;;
43994;SDS011;51687;52.160;5.298;2024-03-29T05:12:36;1.63;;;0.60;;
43994;SDS011;51687;52.160;5.298;2024-03-29T05:15:02;1.27;;;0.50;;
43994;SDS011;51687;52.160;5.298;2024-03-29T05:17:28;3.40;;;0.50;;
43994;SDS011;51687;52.160;5.298;2024-03-29T05:19:54;2.80;;;0.40;;
43994;SDS011;51687;52.160;5.298;2024-03-29T05:22:20;2.80;;;0.50;;
43994;SDS011;51687;52.160;5.298;2024-03-29T05:24:46;2.38;;;0.50;;
43994;SDS011;51687;52.160;5.298;2024-03-29T05:27:12;0.80;;;0.50;;
43994;SDS011;51687;52.160;5.298;2024-03-29T05:29:39;1.40;;;0.50;;
43994;SDS011;51687;52.160;5.298;2024-03-29T05:32:05;1.65;;;0.43;;
43994;SDS011;51687;52.160;5.298;2024-03-29T05:34:32;1.85;;;0.55;;
43994;SDS011;51687;52.160;5.298;2024-03-29T05:36:58;1.02;;;0.50;;
43994;SDS011;51687;52.160;5.298;2024-03-29T05:39:24;2.13;;;0.70;;
43994;SDS011;51687;52.160;5.298;2024-03-29T05:41:50;1.75;;;0.68;;
43994;SDS011;51687;52.160;5.298;2024-03-29T05:44:15;2.20;;;0.60;;
43994;SDS011;51687;52.160;5.298;2024-03-29T05:46:42;1.50;;;0.50;;
43994;SDS011;51687;52.160;5.298;2024-03-29T05:49:09;2.20;;;0.73;;
43994;SDS011;51687;52.160;5.298;2024-03-29T05:51:35;1.92;;;0.70;;
43994;SDS011;51687;52.160;5.298;2024-03-29T05:54:01;3.13;;;0.80;;
43994;SDS011;51687;52.160;5.298;2024-03-29T05:56:32;1.40;;;0.50;;
43994;SDS011;51687;52.160;5.298;2024-03-29T05:58:58;1.15;;;0.50;;
43994;SDS011;51687;52.160;5.298;2024-03-29T06:01:24;3.40;;;0.73;;
43994;SDS011;51687;52.160;5.298;2024-03-29T06:03:51;1.55;;;0.50;;
43994;SDS011;51687;52.160;5.298;2024-03-29T06:06:20;1.95;;;0.80;;
43994;SDS011;51687;52.160;5.298;2024-03-29T06:08:49;2.25;;;0.82;;
43994;SDS011;51687;52.160;5.298;2024-03-29T06:11:16;3.97;;;0.70;;
43994;SDS011;51687;52.160;5.298;2024-03-29T06:13:42;1.85;;;0.70;;
43994;SDS011;51687;52.160;5.298;2024-03-29T06:16:19;1.25;;;0.65;;
43994;SDS011;51687;52.160;5.298;2024-03-29T06:19:04;1.48;;;0.50;;
43994;SDS011;51687;52.160;5.298;2024-03-29T06:21:30;3.30;;;0.70;;
43994;SDS011;51687;52.160;5.298;2024-03-29T06:24:04;2.08;;;0.70;;
43994;SDS011;51687;52.160;5.298;2024-03-29T06:26:31;1.57;;;0.70;;
43994;SDS011;51687;52.160;5.298;2024-03-29T06:28:58;2.05;;;0.80;;
43994;SDS011;51687;52.160;5.298;2024-03-29T06:31:24;2.83;;;0.70;;
43994;SDS011;51687;52.160;5.298;2024-03-29T06:33:50;4.30;;;0.80;;
43994;SDS011;51687;52.160;5.298;2024-03-29T06:36:16;2.00;;;0.80;;
43994;SDS011;51687;52.160;5.298;2024-03-29T06:38:43;1.50;;;0.50;;
43994;SDS011;51687;52.160;5.298;2024-03-29T06:41:09;2.08;;;0.52;;
43994;SDS011;51687;52.160;5.298;2024-03-29T06:43:36;2.03;;;0.70;;
43994;SDS011;51687;52.160;5.298;2024-03-29T06:46:02;1.35;;;0.80;;
43994;SDS011;51687;52.160;5.298;2024-03-29T06:48:29;1.67;;;0.63;;
43994;SDS011;51687;52.160;5.298;2024-03-29T06:50:57;2.08;;;0.73;;
43994;SDS011;51687;52.160;5.298;2024-03-29T06:53:24;1.67;;;0.65;;
43994;SDS011;51687;52.160;5.298;2024-03-29T06:55:54;1.35;;;0.82;;
43994;SDS011;51687;52.160;5.298;2024-03-29T06:58:22;2.38;;;0.70;;
43994;SDS011;51687;52.160;5.298;2024-03-29T07:03:16;2.05;;;0.88;;
43994;SDS011;51687;52.160;5.298;2024-03-29T07:05:45;1.70;;;0.70;;
43994;SDS011;51687;52.160;5.298;2024-03-29T07:08:12;1.40;;;0.73;;
43994;SDS011;51687;52.160;5.298;2024-03-29T07:10:38;2.30;;;0.90;;
43994;SDS011;51687;52.160;5.298;2024-03-29T07:13:08;0.95;;;0.50;;
43994;SDS011;51687;52.160;5.298;2024-03-29T07:15:35;1.48;;;0.80;;
43994;SDS011;51687;52.160;5.298;2024-03-29T07:18:01;1.35;;;0.50;;
43994;SDS011;51687;52.160;5.298;2024-03-29T07:20:31;1.77;;;1.25;;
43994;SDS011;51687;52.160;5.298;2024-03-29T07:22:57;1.58;;;0.70;;
43994;SDS011;51687;52.160;5.298;2024-03-29T07:25:24;0.85;;;0.60;;
43994;SDS011;51687;52.160;5.298;2024-03-29T07:27:51;2.17;;;0.82;;
43994;SDS011;51687;52.160;5.298;2024-03-29T07:30:17;1.33;;;0.70;;
43994;SDS011;51687;52.160;5.298;2024-03-29T07:32:44;1.92;;;0.73;;
43994;SDS011;51687;52.160;5.298;2024-03-29T07:35:10;3.33;;;0.60;;
43994;SDS011;51687;52.160;5.298;2024-03-29T07:37:37;1.45;;;0.63;;
43994;SDS011;51687;52.160;5.298;2024-03-29T07:40:03;0.68;;;0.45;;
43994;SDS011;51687;52.160;5.298;2024-03-29T07:42:29;2.40;;;0.80;;
43994;SDS011;51687;52.160;5.298;2024-03-29T07:44:56;1.30;;;0.65;;
43994;SDS011;51687;52.160;5.298;2024-03-29T07:47:22;1.58;;;0.60;;
43994;SDS011;51687;52.160;5.298;2024-03-29T07:52:17;2.58;;;0.95;;
43994;SDS011;51687;52.160;5.298;2024-03-29T07:54:44;0.93;;;0.67;;
43994;SDS011;51687;52.160;5.298;2024-03-29T07:57:10;1.70;;;0.70;;
43994;SDS011;51687;52.160;5.298;2024-03-29T07:59:40;1.33;;;0.50;;
43994;SDS011;51687;52.160;5.298;2024-03-29T08:02:06;1.00;;;0.57;;
43994;SDS011;51687;52.160;5.298;2024-03-29T08:04:32;1.17;;;0.50;;
43994;SDS011;51687;52.160;5.298;2024-03-29T08:06:58;1.23;;;0.50;;
43994;SDS011;51687;52.160;5.298;2024-03-29T08:09:24;1.65;;;0.68;;
43994;SDS011;51687;52.160;5.298;2024-03-29T08:11:50;1.00;;;0.50;;
43994;SDS011;51687;52.160;5.298;2024-03-29T08:14:16;0.40;;;0.32;;
43994;SDS011;51687;52.160;5.298;2024-03-29T08:16:43;0.65;;;0.43;;
43994;SDS011;51687;52.160;5.298;2024-03-29T08:19:09;1.13;;;0.43;;
43994;SDS011;51687;52.160;5.298;2024-03-29T08:21:35;0.93;;;0.40;;
43994;SDS011;51687;52.160;5.298;2024-03-29T08:24:02;1.17;;;0.40;;
43994;SDS011;51687;52.160;5.298;2024-03-29T08:26:29;0.90;;;0.50;;
43994;SDS011;51687;52.160;5.298;2024-03-29T08:28:56;0.68;;;0.40;;
43994;SDS011;51687;52.160;5.298;2024-03-29T08:31:23;0.95;;;0.45;;
43994;SDS011;51687;52.160;5.298;2024-03-29T08:33:49;0.80;;;0.40;;
43994;SDS011;51687;52.160;5.298;2024-03-29T08:36:16;1.52;;;0.70;;
43994;SDS011;51687;52.160;5.298;2024-03-29T08:38:41;1.00;;;0.32;;
43994;SDS011;51687;52.160;5.298;2024-03-29T08:41:09;0.73;;;0.40;;
43994;SDS011;51687;52.160;5.298;2024-03-29T08:43:35;0.73;;;0.52;;
43994;SDS011;51687;52.160;5.298;2024-03-29T08:46:01;1.13;;;0.50;;
43994;SDS011;51687;52.160;5.298;2024-03-29T08:48:27;0.55;;;0.40;;
43994;SDS011;51687;52.160;5.298;2024-03-29T08:50:53;1.35;;;0.52;;
43994;SDS011;51687;52.160;5.298;2024-03-29T08:53:21;1.55;;;0.55;;
43994;SDS011;51687;52.160;5.298;2024-03-29T08:55:47;1.00;;;0.50;;
43994;SDS011;51687;52.160;5.298;2024-03-29T09:00:51;2.13;;;0.45;;
43994;SDS011;51687;52.160;5.298;2024-03-29T09:03:18;0.50;;;0.50;;
43994;SDS011;51687;52.160;5.298;2024-03-29T09:05:44;1.15;;;0.45;;
43994;SDS011;51687;52.160;5.298;2024-03-29T09:08:10;1.17;;;0.32;;
43994;SDS011;51687;52.160;5.298;2024-03-29T09:10:36;1.17;;;0.57;;
43994;SDS011;51687;52.160;5.298;2024-03-29T09:13:02;0.70;;;0.47;;
43994;SDS011;51687;52.160;5.298;2024-03-29T09:15:28;1.08;;;0.52;;
43994;SDS011;51687;52.160;5.298;2024-03-29T09:17:54;0.90;;;0.57;;
43994;SDS011;51687;52.160;5.298;2024-03-29T09:20:20;2.75;;;0.60;;
43994;SDS011;51687;52.160;5.298;2024-03-29T09:22:46;1.17;;;0.50;;
43994;SDS011;51687;52.160;5.298;2024-03-29T09:25:14;1.95;;;0.50;;
43994;SDS011;51687;52.160;5.298;2024-03-29T09:27:40;1.40;;;0.65;;
43994;SDS011;51687;52.160;5.298;2024-03-29T09:30:09;1.25;;;0.50;;
43994;SDS011;51687;52.160;5.298;2024-03-29T09:32:36;1.67;;;0.63;;
43994;SDS011;51687;52.160;5.298;2024-03-29T09:35:02;1.23;;;0.40;;
43994;SDS011;51687;52.160;5.298;2024-03-29T09:37:28;0.57;;;0.50;;
43994;SDS011;51687;52.160;5.298;2024-03-29T09:39:54;1.02;;;0.50;;
43994;SDS011;51687;52.160;5.298;2024-03-29T09:42:21;0.68;;;0.40;;
43994;SDS011;51687;52.160;5.298;2024-03-29T09:44:50;1.33;;;0.88;;
43994;SDS011;51687;52.160;5.298;2024-03-29T09:47:17;2.25;;;1.70;;
43994;SDS011;51687;52.160;5.298;2024-03-29T09:49:44;1.13;;;0.52;;
43994;SDS011;51687;52.160;5.298;2024-03-29T09:52:13;1.02;;;0.65;;
43994;SDS011;51687;52.160;5.298;2024-03-29T09:54:40;2.80;;;0.80;;
43994;SDS011;51687;52.160;5.298;2024-03-29T09:57:06;3.33;;;1.05;;
43994;SDS011;51687;52.160;5.298;2024-03-29T09:59:33;3.80;;;0.60;;
43994;SDS011;51687;52.160;5.298;2024-03-29T10:02:00;2.70;;;0.90;;
43994;SDS011;51687;52.160;5.298;2024-03-29T10:04:36;2.40;;;0.93;;
43994;SDS011;51687;52.160;5.298;2024-03-29T10:07:02;3.30;;;1.00;;
43994;SDS011;51687;52.160;5.298;2024-03-29T10:09:29;2.03;;;0.77;;
43994;SDS011;51687;52.160;5.298;2024-03-29T10:11:57;1.67;;;0.70;;
43994;SDS011;51687;52.160;5.298;2024-03-29T10:14:23;2.15;;;0.90;;
43994;SDS011;51687;52.160;5.298;2024-03-29T10:16:52;2.75;;;0.93;;
43994;SDS011;51687;52.160;5.298;2024-03-29T10:19:19;2.55;;;0.93;;
43994;SDS011;51687;52.160;5.298;2024-03-29T10:21:47;1.55;;;0.88;;
43994;SDS011;51687;52.160;5.298;2024-03-29T10:24:13;3.58;;;1.50;;
43994;SDS011;51687;52.160;5.298;2024-03-29T10:26:41;2.10;;;0.90;;
43994;SDS011;51687;52.160;5.298;2024-03-29T10:29:07;1.75;;;0.85;;
43994;SDS011;51687;52.160;5.298;2024-03-29T10:31:36;3.75;;;1.50;;
43994;SDS011;51687;52.160;5.298;2024-03-29T10:36:30;1.65;;;1.00;;
43994;SDS011;51687;52.160;5.298;2024-03-29T10:39:08;1.45;;;0.98;;
43994;SDS011;51687;52.160;5.298;2024-03-29T10:41:41;2.28;;;0.93;;
43994;SDS011;51687;52.160;5.298;2024-03-29T10:44:11;2.13;;;0.85;;
43994;SDS011;51687;52.160;5.298;2024-03-29T10:46:38;0.70;;;0.70;;
43994;SDS011;51687;52.160;5.298;2024-03-29T10:49:08;1.67;;;0.70;;
43994;SDS011;51687;52.160;5.298;2024-03-29T10:51:40;1.45;;;0.60;;
43994;SDS011;51687;52.160;5.298;2024-03-29T10:54:10;2.40;;;1.13;;
43994;SDS011;51687;52.160;5.298;2024-03-29T10:56:36;3.03;;;0.77;;
43994;SDS011;51687;52.160;5.298;2024-03-29T10:59:08;2.67;;;0.80;;
43994;SDS011;51687;52.160;5.298;2024-03-29T11:01:45;1.38;;;0.90;;
43994;SDS011;51687;52.160;5.298;2024-03-29T11:04:22;2.38;;;0.77;;
43994;SDS011;51687;52.160;5.298;2024-03-29T11:06:54;2.28;;;1.13;;
43994;SDS011;51687;52.160;5.298;2024-03-29T11:09:24;1.48;;;0.82;;
43994;SDS011;51687;52.160;5.298;2024-03-29T11:11:54;2.90;;;1.20;;
43994;SDS011;51687;52.160;5.298;2024-03-29T11:14:24;2.30;;;0.82;;
43994;SDS011;51687;52.160;5.298;2024-03-29T11:16:54;1.88;;;0.90;;
43994;SDS011;51687;52.160;5.298;2024-03-29T11:19:23;1.60;;;0.80;;
43994;SDS011;51687;52.160;5.298;2024-03-29T11:21:50;4.65;;;1.17;;
43994;SDS011;51687;52.160;5.298;2024-03-29T11:24:16;0.60;;;0.60;;
43994;SDS011;51687;52.160;5.298;2024-03-29T11:26:45;2.28;;;1.05;;
43994;SDS011;51687;52.160;5.298;2024-03-29T11:29:19;2.45;;;0.95;;
43994;SDS011;51687;52.160;5.298;2024-03-29T11:31:58;3.42;;;0.80;;
43994;SDS011;51687;52.160;5.298;2024-03-29T11:34:24;1.40;;;0.65;;
43994;SDS011;51687;52.160;5.298;2024-03-29T11:36:51;1.67;;;1.00;;
43994;SDS011;51687;52.160;5.298;2024-03-29T11:39:21;1.27;;;0.90;;
43994;SDS011;51687;52.160;5.298;2024-03-29T11:41:49;1.27;;;0.60;;
43994;SDS011;51687;52.160;5.298;2024-03-29T11:44:15;0.93;;;0.55;;
43994;SDS011;51687;52.160;5.298;2024-03-29T11:46:42;1.58;;;0.80;;
43994;SDS011;51687;52.160;5.298;2024-03-29T11:49:09;4.18;;;0.82;;
43994;SDS011;51687;52.160;5.298;2024-03-29T11:51:35;1.30;;;0.60;;
43994;SDS011;51687;52.160;5.298;2024-03-29T11:54:01;0.80;;;0.55;;
43994;SDS011;51687;52.160;5.298;2024-03-29T11:56:28;1.17;;;0.60;;
43994;SDS011;51687;52.160;5.298;2024-03-29T11:58:54;1.80;;;0.60;;
43994;SDS011;51687;52.160;5.298;2024-03-29T12:01:25;2.08;;;0.90;;
43994;SDS011;51687;52.160;5.298;2024-03-29T12:03:51;1.50;;;0.60;;
43994;SDS011;51687;52.160;5.298;2024-03-29T12:06:17;2.05;;;0.63;;
43994;SDS011;51687;52.160;5.298;2024-03-29T12:08:44;1.45;;;0.63;;
43994;SDS011;51687;52.160;5.298;2024-03-29T12:11:11;1.58;;;0.70;;
43994;SDS011;51687;52.160;5.298;2024-03-29T12:13:38;1.83;;;0.90;;
43994;SDS011;51687;52.160;5.298;2024-03-29T12:18:34;1.27;;;0.63;;
43994;SDS011;51687;52.160;5.298;2024-03-29T12:21:01;1.88;;;0.80;;
43994;SDS011;51687;52.160;5.298;2024-03-29T12:23:28;0.68;;;0.55;;
43994;SDS011;51687;52.160;5.298;2024-03-29T12:25:56;2.83;;;1.27;;
43994;SDS011;51687;52.160;5.298;2024-03-29T12:28:23;2.85;;;1.00;;
43994;SDS011;51687;52.160;5.298;2024-03-29T12:30:50;1.38;;;0.77;;
43994;SDS011;51687;52.160;5.298;2024-03-29T12:33:19;2.83;;;1.00;;
43994;SDS011;51687;52.160;5.298;2024-03-29T12:35:46;3.78;;;1.20;;
43994;SDS011;51687;52.160;5.298;2024-03-29T12:38:17;2.53;;;1.40;;
43994;SDS011;51687;52.160;5.298;2024-03-29T12:40:45;3.63;;;1.45;;
43994;SDS011;51687;52.160;5.298;2024-03-29T12:43:13;3.08;;;1.40;;
43994;SDS011;51687;52.160;5.298;2024-03-29T12:45:40;1.80;;;1.38;;
43994;SDS011;51687;52.160;5.298;2024-03-29T12:48:18;1.52;;;1.20;;
43994;SDS011;51687;52.160;5.298;2024-03-29T12:50:45;2.78;;;1.40;;
43994;SDS011;51687;52.160;5.298;2024-03-29T12:53:12;1.40;;;1.30;;
43994;SDS011;51687;52.160;5.298;2024-03-29T12:55:45;2.00;;;1.58;;
43994;SDS011;51687;52.160;5.298;2024-03-29T12:58:12;2.95;;;1.70;;
43994;SDS011;51687;52.160;5.298;2024-03-29T13:00:39;3.08;;;1.63;;
43994;SDS011;51687;52.160;5.298;2024-03-29T13:03:05;2.33;;;1.80;;
43994;SDS011;51687;52.160;5.298;2024-03-29T13:05:32;3.28;;;1.35;;
43994;SDS011;51687;52.160;5.298;2024-03-29T13:08:04;2.20;;;1.40;;
43994;SDS011;51687;52.160;5.298;2024-03-29T13:10:30;1.85;;;1.50;;
43994;SDS011;51687;52.160;5.298;2024-03-29T13:12:56;2.67;;;1.60;;
43994;SDS011;51687;52.160;5.298;2024-03-29T13:15:23;3.58;;;1.52;;
43994;SDS011;51687;52.160;5.298;2024-03-29T13:17:53;3.30;;;1.70;;
43994;SDS011;51687;52.160;5.298;2024-03-29T13:20:20;1.63;;;1.52;;
43994;SDS011;51687;52.160;5.298;2024-03-29T13:22:47;2.00;;;1.70;;
43994;SDS011;51687;52.160;5.298;2024-03-29T13:25:15;6.43;;;2.38;;
43994;SDS011;51687;52.160;5.298;2024-03-29T13:27:42;1.88;;;1.75;;
43994;SDS011;51687;52.160;5.298;2024-03-29T13:30:10;2.58;;;1.95;;
43994;SDS011;51687;52.160;5.298;2024-03-29T13:32:38;1.95;;;1.70;;
43994;SDS011;51687;52.160;5.298;2024-03-29T13:35:08;1.85;;;1.70;;
43994;SDS011;51687;52.160;5.298;2024-03-29T13:37:35;2.72;;;1.50;;
43994;SDS011;51687;52.160;5.298;2024-03-29T13:40:03;1.73;;;1.63;;
43994;SDS011;51687;52.160;5.298;2024-03-29T13:44:56;2.03;;;1.60;;
43994;SDS011;51687;52.160;5.298;2024-03-29T13:47:24;2.08;;;1.63;;
43994;SDS011;51687;52.160;5.298;2024-03-29T13:49:50;2.15;;;1.30;;
43994;SDS011;51687;52.160;5.298;2024-03-29T13:52:18;2.45;;;1.27;;
43994;SDS011;51687;52.160;5.298;2024-03-29T13:54:45;1.20;;;1.10;;
43994;SDS011;51687;52.160;5.298;2024-03-29T13:57:12;2.10;;;1.25;;
43994;SDS011;51687;52.160;5.298;2024-03-29T13:59:39;4.88;;;1.35;;
43994;SDS011;51687;52.160;5.298;2024-03-29T14:02:09;1.42;;;1.33;;
43994;SDS011;51687;52.160;5.298;2024-03-29T14:04:35;1.38;;;1.23;;
43994;SDS011;51687;52.160;5.298;2024-03-29T14:07:01;2.53;;;1.70;;
43994;SDS011;51687;52.160;5.298;2024-03-29T14:09:28;3.13;;;1.30;;
43994;SDS011;51687;52.160;5.298;2024-03-29T14:11:55;2.05;;;1.20;;
43994;SDS011;51687;52.160;5.298;2024-03-29T14:14:21;3.75;;;1.35;;
43994;SDS011;51687;52.160;5.298;2024-03-29T14:16:48;1.20;;;1.10;;
43994;SDS011;51687;52.160;5.298;2024-03-29T14:19:14;4.32;;;1.10;;
43994;SDS011;51687;52.160;5.298;2024-03-29T14:21:40;1.60;;;1.08;;
43994;SDS011;51687;52.160;5.298;2024-03-29T14:24:06;2.70;;;1.10;;
43994;SDS011;51687;52.160;5.298;2024-03-29T14:26:33;1.50;;;1.08;;
43994;SDS011;51687;52.160;5.298;2024-03-29T14:28:59;2.08;;;1.00;;
43994;SDS011;51687;52.160;5.298;2024-03-29T14:31:25;2.83;;;1.13;;
43994;SDS011;51687;52.160;5.298;2024-03-29T14:33:52;2.70;;;1.45;;
43994;SDS011;51687;52.160;5.298;2024-03-29T14:36:18;1.23;;;1.13;;
43994;SDS011;51687;52.160;5.298;2024-03-29T14:38:44;0.80;;;0.80;;
43994;SDS011;51687;52.160;5.298;2024-03-29T14:41:11;4.25;;;0.88;;
43994;SDS011;51687;52.160;5.298;2024-03-29T14:43:37;0.90;;;0.63;;
43994;SDS011;51687;52.160;5.298;2024-03-29T14:46:03;1.65;;;0.80;;
43994;SDS011;51687;52.160;5.298;2024-03-29T14:48:29;0.93;;;0.70;;
43994;SDS011;51687;52.160;5.298;2024-03-29T14:50:56;1.92;;;0.90;;
43994;SDS011;51687;52.160;5.298;2024-03-29T14:53:23;1.55;;;0.60;;
43994;SDS011;51687;52.160;5.298;2024-03-29T14:55:49;1.15;;;0.52;;
43994;SDS011;51687;52.160;5.298;2024-03-29T14:58:16;0.95;;;0.60;;
43994;SDS011;51687;52.160;5.298;2024-03-29T15:00:42;1.45;;;0.70;;
43994;SDS011;51687;52.160;5.298;2024-03-29T15:03:12;1.60;;;0.80;;